createdAt,value
2023-03-11T00:00:58.168Z,9.54
2023-03-11T00:04:23.390Z,9.49
2023-03-11T00:07:49.627Z,9.46
2023-03-11T00:11:13.905Z,9.49
2023-03-11T00:14:37.876Z,9.43
2023-03-11T00:18:01.969Z,9.27
2023-03-11T00:21:27.310Z,9.18
2023-03-11T00:24:52.086Z,9.17
2023-03-11T00:28:16.496Z,9.14
2023-03-11T00:31:44.097Z,9.13
2023-03-11T00:35:08.582Z,8.93
2023-03-11T00:38:33.738Z,8.91
2023-03-11T00:41:58.039Z,9.09
2023-03-11T00:45:22.534Z,8.89
2023-03-11T00:48:46.221Z,8.90
2023-03-11T00:52:10.803Z,9.02
2023-03-11T00:55:39.090Z,8.92
2023-03-11T00:59:03.580Z,9.02
2023-03-11T01:02:30.766Z,8.97
2023-03-11T01:05:56.663Z,9.04
2023-03-11T01:09:22.948Z,9.01
2023-03-11T01:12:48.845Z,9.03
2023-03-11T01:16:12.671Z,8.99
2023-03-11T01:19:39.237Z,8.97
2023-03-11T01:23:03.413Z,9.11
2023-03-11T01:26:32.412Z,8.97
2023-03-11T01:30:00.993Z,9.15
2023-03-11T01:33:25.116Z,8.98
2023-03-11T01:36:48.964Z,8.89
2023-03-11T01:40:16.511Z,8.90
2023-03-11T01:43:50.647Z,8.98
2023-03-11T01:47:39.509Z,9.00
2023-03-11T01:51:04.034Z,8.85
2023-03-11T01:54:39.482Z,8.79
2023-03-11T01:58:06.326Z,8.78
2023-03-11T02:01:31.957Z,8.70
2023-03-11T02:04:58.145Z,8.53
2023-03-11T02:08:23.700Z,8.61
2023-03-11T02:11:48.267Z,8.55
2023-03-11T02:15:12.769Z,8.54
2023-03-11T02:18:36.937Z,8.46
2023-03-11T02:22:02.298Z,8.55
2023-03-11T02:25:33.248Z,8.62
2023-03-11T02:29:00.712Z,8.56
2023-03-11T02:32:24.717Z,8.53
2023-03-11T02:35:49.602Z,8.45
2023-03-11T02:39:14.741Z,8.46
2023-03-11T02:42:39.514Z,8.58
2023-03-11T02:46:06.052Z,8.58
2023-03-11T02:49:30.327Z,8.52
2023-03-11T02:52:54.696Z,8.61
2023-03-11T02:56:18.909Z,8.60
2023-03-11T02:59:43.585Z,8.67
2023-03-11T03:03:11.688Z,8.45
2023-03-11T03:06:38.909Z,8.57
2023-03-11T03:10:05.804Z,8.56
2023-03-11T03:13:29.885Z,8.48
2023-03-11T03:16:54.770Z,8.50
2023-03-11T03:20:23.042Z,8.45
2023-03-11T03:23:47.791Z,8.69
2023-03-11T03:27:12.473Z,8.75
2023-03-11T03:30:36.875Z,8.64
2023-03-11T03:34:01.369Z,8.68
2023-03-11T03:37:28.673Z,8.78
2023-03-11T03:40:57.693Z,8.79
2023-03-11T03:44:34.088Z,8.79
2023-03-11T03:48:26.758Z,8.84
2023-03-11T03:51:53.323Z,9.00
2023-03-11T03:55:22.903Z,9.09
2023-03-11T03:58:48.119Z,9.12
2023-03-11T04:02:12.532Z,9.12
2023-03-11T04:05:36.989Z,9.12
2023-03-11T04:09:01.178Z,9.16
2023-03-11T04:12:27.016Z,9.13
2023-03-11T04:15:51.312Z,9.00
2023-03-11T04:19:16.028Z,8.83
2023-03-11T04:22:39.793Z,8.80
2023-03-11T04:26:04.874Z,8.61
2023-03-11T04:29:30.642Z,8.62
2023-03-11T04:32:55.124Z,8.64
2023-03-11T04:36:21.140Z,8.56
2023-03-11T04:39:46.018Z,8.51
2023-03-11T04:43:09.803Z,8.50
2023-03-11T04:46:35.689Z,8.45
2023-03-11T04:50:00.212Z,8.31
2023-03-11T04:53:24.431Z,8.29
2023-03-11T04:56:48.493Z,8.15
2023-03-11T05:00:13.682Z,8.17
2023-03-11T05:03:39.554Z,8.09
2023-03-11T05:07:04.882Z,8.07
2023-03-11T05:10:31.392Z,8.09
2023-03-11T05:13:56.701Z,7.89
2023-03-11T05:17:23.082Z,7.69
2023-03-11T05:20:50.151Z,7.44
2023-03-11T05:24:15.118Z,7.47
2023-03-11T05:27:39.917Z,7.31
2023-03-11T05:31:06.316Z,7.12
2023-03-11T05:34:31.172Z,7.05
2023-03-11T05:37:56.788Z,7.05
2023-03-11T05:41:21.666Z,6.94
2023-03-11T05:44:45.878Z,6.83
2023-03-11T05:48:09.722Z,6.78
2023-03-11T05:51:33.716Z,6.74
2023-03-11T05:55:01.682Z,6.71
2023-03-11T05:58:27.543Z,6.67
2023-03-11T06:01:55.520Z,6.58
2023-03-11T06:05:20.236Z,6.53
2023-03-11T06:08:50.090Z,6.51
2023-03-11T06:12:16.474Z,6.44
2023-03-11T06:15:40.740Z,6.43
2023-03-11T06:19:04.956Z,6.36
2023-03-11T06:22:30.653Z,6.28
2023-03-11T06:26:02.600Z,6.28
2023-03-11T06:29:29.596Z,6.22
2023-03-11T06:32:53.725Z,6.15
2023-03-11T06:36:18.278Z,6.10
2023-03-11T06:39:46.835Z,6.06
2023-03-11T06:43:11.770Z,6.09
2023-03-11T06:46:37.702Z,6.04
2023-03-11T06:50:06.492Z,6.08
2023-03-11T06:53:31.392Z,6.17
2023-03-11T06:56:55.583Z,6.14
2023-03-11T07:00:20.360Z,6.14
2023-03-11T07:03:47.569Z,6.15
2023-03-11T07:07:12.656Z,6.06
2023-03-11T07:10:37.456Z,6.08
2023-03-11T07:14:01.454Z,6.27
2023-03-11T07:17:25.967Z,6.11
2023-03-11T07:20:52.005Z,6.15
2023-03-11T07:24:16.254Z,6.27
2023-03-11T07:27:41.074Z,6.19
2023-03-11T07:31:09.948Z,6.32
2023-03-11T07:34:34.476Z,6.47
2023-03-11T07:38:00.171Z,6.41
2023-03-11T07:41:27.548Z,6.31
2023-03-11T07:44:53.435Z,6.42
2023-03-11T07:48:20.730Z,6.27
2023-03-11T07:51:46.538Z,6.28
2023-03-11T07:55:12.372Z,6.20
2023-03-11T07:58:39.642Z,6.22
2023-03-11T08:02:31.784Z,6.18
2023-03-11T08:05:56.837Z,6.33
2023-03-11T08:09:21.543Z,6.32
2023-03-11T08:12:47.932Z,6.21
2023-03-11T08:16:12.605Z,6.21
2023-03-11T08:19:38.383Z,6.31
2023-03-11T08:23:06.202Z,6.29
2023-03-11T08:26:35.214Z,6.24
2023-03-11T08:30:01.132Z,6.69
2023-03-11T08:33:26.394Z,6.67
2023-03-11T08:36:59.141Z,6.47
2023-03-11T08:40:24.375Z,6.46
2023-03-11T08:43:52.911Z,6.40
2023-03-11T08:47:19.091Z,6.17
2023-03-11T08:50:53.413Z,6.31
2023-03-11T08:54:19.127Z,7.24
2023-03-11T08:57:42.907Z,7.11
2023-03-11T09:01:07.036Z,7.25
2023-03-11T09:04:31.930Z,7.28
2023-03-11T09:07:56.448Z,7.97
2023-03-11T09:11:22.721Z,8.65
2023-03-11T09:14:48.692Z,9.30
2023-03-11T09:18:19.881Z,7.92
2023-03-11T09:21:46.135Z,7.25
2023-03-11T09:25:11.760Z,7.06
2023-03-11T09:28:36.052Z,6.88
2023-03-11T09:32:00.184Z,8.41
2023-03-11T09:35:24.860Z,8.94
2023-03-11T09:38:50.864Z,8.76
2023-03-11T09:42:21.280Z,9.28
2023-03-11T09:45:47.429Z,10.00
2023-03-11T09:49:16.495Z,9.76
2023-03-11T09:52:43.038Z,9.13
2023-03-11T09:56:09.719Z,8.24
2023-03-11T09:59:34.345Z,8.52
2023-03-11T10:02:58.660Z,9.20
2023-03-11T10:06:26.480Z,8.79
2023-03-11T10:09:54.507Z,9.11
2023-03-11T10:13:24.849Z,9.24
2023-03-11T10:16:53.566Z,9.94
2023-03-11T10:20:21.437Z,10.00
2023-03-11T10:23:54.930Z,9.83
2023-03-11T10:27:20.730Z,9.52
2023-03-11T10:30:48.915Z,9.24
2023-03-11T10:34:22.159Z,8.35
2023-03-11T10:37:50.026Z,8.47
2023-03-11T10:41:17.564Z,8.09
2023-03-11T10:44:42.807Z,7.78
2023-03-11T10:48:14.217Z,7.76
2023-03-11T10:51:38.777Z,7.64
2023-03-11T10:55:04.573Z,7.63
2023-03-11T10:58:28.955Z,7.37
2023-03-11T11:01:56.752Z,7.37
2023-03-11T11:05:32.997Z,7.08
2023-03-11T11:09:17.486Z,7.00
2023-03-11T11:12:46.303Z,6.96
2023-03-11T11:16:21.303Z,7.11
2023-03-11T11:19:46.652Z,6.87
2023-03-11T11:23:29.138Z,6.79
2023-03-11T11:27:06.035Z,6.53
2023-03-11T11:30:33.283Z,6.39
2023-03-11T11:33:57.384Z,6.46
2023-03-11T11:37:27.197Z,6.38
2023-03-11T11:40:53.440Z,6.48
2023-03-11T11:44:19.336Z,6.82
2023-03-11T11:47:45.456Z,6.83
2023-03-11T11:51:12.572Z,7.26
2023-03-11T11:54:38.955Z,8.07
2023-03-11T11:58:04.437Z,8.22
2023-03-11T12:01:36.990Z,8.78
2023-03-11T12:05:02.643Z,9.99
2023-03-11T12:08:28.591Z,8.80
2023-03-11T12:11:54.396Z,8.34
2023-03-11T12:15:21.472Z,7.90
2023-03-11T12:18:56.357Z,8.13
2023-03-11T12:22:44.611Z,7.68
2023-03-11T12:26:18.002Z,7.34
2023-03-11T12:29:44.496Z,7.43
2023-03-11T12:33:14.688Z,7.50
2023-03-11T12:36:40.639Z,7.49
2023-03-11T12:40:37.772Z,8.57
2023-03-11T12:44:26.033Z,8.92
2023-03-11T12:48:38.143Z,9.73
2023-03-11T12:52:07.397Z,10.14
2023-03-11T12:55:36.121Z,9.97
2023-03-11T12:59:18.750Z,8.64
2023-03-11T13:03:32.812Z,8.14
2023-03-11T13:07:43.977Z,8.89
2023-03-11T13:11:30.514Z,9.33
2023-03-11T13:15:33.201Z,8.83
2023-03-11T13:19:00.460Z,9.08
2023-03-11T13:22:47.122Z,9.32
2023-03-11T13:26:35.728Z,9.32
2023-03-11T13:30:03.208Z,8.61
2023-03-11T13:33:51.351Z,8.04
2023-03-11T13:37:23.215Z,7.65
2023-03-11T13:40:52.547Z,7.68
2023-03-11T13:44:24.601Z,7.79
2023-03-11T13:47:52.218Z,7.33
2023-03-11T13:51:19.079Z,7.28
2023-03-11T13:54:47.207Z,7.45
2023-03-11T13:58:18.027Z,7.24
2023-03-11T14:01:43.091Z,7.29
2023-03-11T14:05:08.950Z,7.75
2023-03-11T14:08:35.534Z,7.25
2023-03-11T14:12:07.981Z,6.96
2023-03-11T14:15:45.384Z,6.96
2023-03-11T14:19:16.137Z,7.45
2023-03-11T14:22:40.930Z,7.00
2023-03-11T14:26:07.381Z,6.94
2023-03-11T14:29:33.685Z,7.02
2023-03-11T14:33:00.038Z,6.88
2023-03-11T14:36:25.923Z,6.87
2023-03-11T14:39:54.261Z,6.93
2023-03-11T14:43:19.302Z,6.74
2023-03-11T14:46:46.817Z,6.63
2023-03-11T14:50:13.823Z,6.49
2023-03-11T14:53:46.374Z,6.54
2023-03-11T14:57:24.100Z,6.46
2023-03-11T15:00:50.761Z,6.59
2023-03-11T15:04:16.466Z,7.78
2023-03-11T15:07:41.710Z,7.35
2023-03-11T15:11:10.227Z,8.12
2023-03-11T15:14:38.821Z,6.92
2023-03-11T15:18:17.257Z,6.64
2023-03-11T15:22:01.107Z,6.40
2023-03-11T15:25:27.935Z,6.16
2023-03-11T15:28:58.480Z,6.19
2023-03-11T15:32:47.685Z,5.98
2023-03-11T15:36:30.940Z,6.00
2023-03-11T15:39:58.476Z,5.92
2023-03-11T15:43:28.992Z,5.79
2023-03-11T15:46:56.231Z,5.98
2023-03-11T15:50:27.407Z,5.83
2023-03-11T15:54:00.174Z,5.74
2023-03-11T15:57:26.454Z,5.67
2023-03-11T16:00:51.836Z,5.61
2023-03-11T16:04:20.345Z,5.53
2023-03-11T16:07:47.479Z,5.56
2023-03-11T16:11:13.529Z,5.60
2023-03-11T16:14:41.688Z,5.63
2023-03-11T16:18:08.049Z,5.62
2023-03-11T16:21:37.092Z,5.49
2023-03-11T16:25:03.044Z,5.44
2023-03-11T16:28:27.660Z,5.31
2023-03-11T16:31:57.267Z,5.30
2023-03-11T16:35:22.490Z,5.24
2023-03-11T16:38:51.172Z,5.19
2023-03-11T16:42:15.675Z,5.16
2023-03-11T16:45:46.000Z,5.09
2023-03-11T16:49:10.191Z,5.11
2023-03-11T16:52:35.774Z,5.17
2023-03-11T16:56:02.177Z,5.11
2023-03-11T16:59:27.457Z,5.20
2023-03-11T17:02:57.676Z,5.14
2023-03-11T17:06:24.505Z,5.15
2023-03-11T17:09:50.367Z,5.12
2023-03-11T17:13:19.129Z,5.03
2023-03-11T17:16:45.305Z,5.01
2023-03-11T17:20:13.154Z,4.93
2023-03-11T17:23:38.771Z,4.93
2023-03-11T17:27:06.160Z,4.87
2023-03-11T17:30:45.605Z,4.79
2023-03-11T17:34:15.746Z,4.83
2023-03-11T17:37:47.361Z,4.69
2023-03-11T17:41:17.934Z,4.64
2023-03-11T17:44:51.827Z,4.62
2023-03-11T17:48:22.303Z,4.58
2023-03-11T17:51:57.416Z,4.59
2023-03-11T17:55:24.009Z,4.48
2023-03-11T17:58:58.849Z,4.55
2023-03-11T18:02:24.679Z,4.58
2023-03-11T18:06:04.746Z,4.56
2023-03-11T18:09:30.505Z,4.53
2023-03-11T18:12:58.900Z,4.46
2023-03-11T18:16:25.217Z,4.41
2023-03-11T18:19:51.315Z,4.46
2023-03-11T18:23:21.878Z,4.24
2023-03-11T18:26:48.026Z,4.22
2023-03-11T18:30:16.627Z,4.08
2023-03-11T18:33:42.446Z,4.05
2023-03-11T18:37:10.491Z,4.05
2023-03-11T18:40:51.466Z,3.88
2023-03-11T18:44:16.985Z,3.81
2023-03-11T18:47:45.551Z,3.66
2023-03-11T18:51:10.514Z,3.67
2023-03-11T18:54:41.050Z,3.61
2023-03-11T18:58:10.206Z,3.68
2023-03-11T19:01:49.496Z,3.64
2023-03-11T19:05:17.089Z,3.61
2023-03-11T19:08:43.449Z,3.61
2023-03-11T19:12:14.787Z,3.60
2023-03-11T19:15:45.966Z,3.53
2023-03-11T19:19:13.067Z,3.55
2023-03-11T19:22:40.292Z,3.49
2023-03-11T19:26:05.317Z,3.53
2023-03-11T19:29:34.224Z,3.46
2023-03-11T19:36:45.544Z,3.39
2023-03-11T19:40:13.652Z,3.42
2023-03-11T19:43:46.415Z,3.34
2023-03-11T19:47:12.763Z,3.27
2023-03-11T19:50:49.200Z,3.24
2023-03-11T19:54:14.494Z,3.22
2023-03-11T19:57:55.150Z,3.20
2023-03-11T20:01:25.894Z,3.19
2023-03-11T20:04:52.663Z,3.14
2023-03-11T20:08:19.811Z,3.09
2023-03-11T20:11:50.392Z,3.04
2023-03-11T20:15:16.304Z,3.14
2023-03-11T20:18:42.487Z,3.07
2023-03-11T20:22:09.219Z,3.07
2023-03-11T20:25:45.153Z,3.02
2023-03-11T20:29:11.117Z,2.97
2023-03-11T20:32:37.024Z,2.89
2023-03-11T20:36:12.826Z,3.02
2023-03-11T20:39:37.749Z,2.97
2023-03-11T20:43:04.596Z,2.85
2023-03-11T20:46:32.251Z,2.80
2023-03-11T20:49:57.636Z,2.85
2023-03-11T20:53:23.912Z,2.77
2023-03-11T20:56:49.912Z,2.71
2023-03-11T21:00:19.832Z,2.65
2023-03-11T21:03:51.825Z,2.57
2023-03-11T21:07:18.155Z,2.58
2023-03-11T21:10:44.869Z,2.56
2023-03-11T21:14:11.108Z,2.57
2023-03-11T21:17:38.616Z,2.42
2023-03-11T21:21:32.247Z,2.44
2023-03-11T21:25:16.432Z,2.34
2023-03-11T21:28:45.417Z,2.37
2023-03-11T21:32:12.019Z,2.32
2023-03-11T21:35:41.997Z,2.24
2023-03-11T21:39:08.976Z,2.25
2023-03-11T21:42:35.167Z,2.19
2023-03-11T21:45:59.628Z,2.13
2023-03-11T21:49:24.590Z,2.15
2023-03-11T21:52:50.861Z,2.09
2023-03-11T21:59:57.460Z,2.17
2023-03-11T22:03:21.810Z,2.07
2023-03-11T22:06:50.375Z,2.04
2023-03-11T22:10:16.238Z,2.10
2023-03-11T22:13:43.406Z,2.07
2023-03-11T22:17:06.676Z,2.14
2023-03-11T22:20:33.277Z,2.02
2023-03-11T22:23:59.931Z,2.16
2023-03-11T22:27:26.826Z,2.11
2023-03-11T22:30:57.589Z,2.11
2023-03-11T22:34:26.407Z,2.13
2023-03-11T22:37:52.102Z,2.05
2023-03-11T22:41:19.567Z,2.14
2023-03-11T22:48:37.694Z,2.10
2023-03-11T22:52:01.528Z,1.91
2023-03-11T22:55:26.193Z,2.16
2023-03-11T22:58:49.910Z,1.94
2023-03-11T23:02:15.452Z,1.95
2023-03-11T23:05:42.439Z,2.02
2023-03-11T23:09:06.525Z,1.76
2023-03-11T23:12:30.845Z,1.84
2023-03-11T23:15:55.644Z,1.86
2023-03-11T23:19:21.026Z,1.69
2023-03-11T23:22:45.110Z,1.81
2023-03-11T23:26:10.371Z,1.77
2023-03-11T23:29:34.026Z,1.67
2023-03-11T23:32:57.880Z,1.69
2023-03-11T23:36:24.594Z,1.68
2023-03-11T23:39:48.738Z,1.69
2023-03-11T23:43:12.966Z,1.58
2023-03-11T23:46:39.530Z,1.49
2023-03-11T23:50:03.769Z,1.63
2023-03-11T23:53:29.495Z,1.66
2023-03-11T23:56:53.663Z,1.52
